createdAt,value
2022-10-01T00:04:00.167Z,96575.00
2022-10-01T00:09:01.528Z,96568.00
2022-10-01T00:14:02.427Z,96571.00
2022-10-01T00:19:03.260Z,96577.00
2022-10-01T00:24:06.541Z,96568.00
2022-10-01T00:29:12.526Z,96552.00
2022-10-01T00:34:14.726Z,96545.00
2022-10-01T00:39:15.520Z,96542.00
2022-10-01T00:44:36.700Z,96546.00
2022-10-01T00:49:40.228Z,96537.00
2022-10-01T00:54:54.897Z,96531.00
2022-10-01T01:00:00.899Z,96523.00
2022-10-01T01:05:02.606Z,96516.00
2022-10-01T01:10:06.590Z,96507.00
2022-10-01T01:15:52.927Z,96505.00
2022-10-01T01:21:59.475Z,96499.00
2022-10-01T01:27:18.521Z,96500.00
2022-10-01T01:33:02.407Z,96501.00
2022-10-01T01:38:13.403Z,96491.00
2022-10-01T01:43:18.763Z,96488.00
2022-10-01T01:48:23.410Z,96470.00
2022-10-01T01:53:25.376Z,96464.00
2022-10-01T01:58:27.456Z,96454.00
2022-10-01T02:03:32.285Z,96450.00
2022-10-01T02:09:07.350Z,96449.00
2022-10-01T02:16:03.675Z,96458.00
2022-10-01T02:21:39.278Z,96437.00
2022-10-01T02:26:43.521Z,96442.00
2022-10-01T02:31:46.882Z,96442.00
2022-10-01T02:36:48.424Z,96434.00
2022-10-01T02:41:51.292Z,96436.00
2022-10-01T02:47:53.364Z,96425.00
2022-10-01T02:53:06.407Z,96428.00
2022-10-01T02:58:08.025Z,96420.00
2022-10-01T03:03:08.814Z,96425.00
2022-10-01T03:08:09.593Z,96417.00
2022-10-01T03:13:10.407Z,96410.00
2022-10-01T03:18:11.142Z,96403.00
2022-10-01T03:23:12.200Z,96389.00
2022-10-01T03:28:12.991Z,96381.00
2022-10-01T03:33:13.976Z,96383.00
2022-10-01T03:38:14.704Z,96377.00
2022-10-01T03:43:15.557Z,96386.00
2022-10-01T03:48:17.496Z,96374.00
2022-10-01T03:53:18.328Z,96363.00
2022-10-01T03:58:19.688Z,96369.00
2022-10-01T04:03:20.975Z,96361.00
2022-10-01T04:08:24.536Z,96349.00
2022-10-01T04:13:25.749Z,96342.00
2022-10-01T04:18:26.531Z,96336.00
2022-10-01T04:23:27.534Z,96345.00
2022-10-01T04:28:29.395Z,96331.00
2022-10-01T04:33:30.275Z,96322.00
2022-10-01T04:38:31.110Z,96305.00
2022-10-01T04:43:32.318Z,96297.00
2022-10-01T04:48:33.220Z,96289.00
2022-10-01T04:53:34.206Z,96287.00
2022-10-01T04:58:35.033Z,96265.00
2022-10-01T05:03:35.802Z,96278.00
2022-10-01T05:08:37.247Z,96289.00
2022-10-01T05:13:38.027Z,96290.00
2022-10-01T05:18:39.776Z,96282.00
2022-10-01T05:23:41.525Z,96299.00
2022-10-01T05:28:43.818Z,96297.00
2022-10-01T05:33:44.788Z,96289.00
2022-10-01T05:38:47.824Z,96291.00
2022-10-01T05:43:48.881Z,96291.00
2022-10-01T05:48:50.615Z,96280.00
2022-10-01T05:53:54.651Z,96280.00
2022-10-01T05:58:55.788Z,96294.00
2022-10-01T06:03:56.568Z,96283.00
2022-10-01T06:08:58.546Z,96278.00
2022-10-01T06:13:59.275Z,96255.00
2022-10-01T06:19:00.678Z,96251.00
2022-10-01T06:24:01.796Z,96263.00
2022-10-01T06:29:02.773Z,96266.00
2022-10-01T06:34:03.720Z,96270.00
2022-10-01T06:39:04.574Z,96269.00
2022-10-01T06:44:05.578Z,96262.00
2022-10-01T06:49:06.349Z,96265.00
2022-10-01T06:54:07.251Z,96232.00
2022-10-01T06:59:07.971Z,96248.00
2022-10-01T07:04:08.756Z,96234.00
2022-10-01T07:09:09.509Z,96234.00
2022-10-01T07:14:10.418Z,96230.00
2022-10-01T07:19:11.231Z,96228.00
2022-10-01T07:24:12.701Z,96219.00
2022-10-01T07:29:13.430Z,96185.00
2022-10-01T07:34:14.231Z,96189.00
2022-10-01T07:39:15.002Z,96199.00
2022-10-01T07:44:15.839Z,96200.00
2022-10-01T07:49:16.553Z,96204.00
2022-10-01T07:54:18.959Z,96224.00
2022-10-01T07:59:19.774Z,96237.00
2022-10-01T08:04:39.924Z,96242.00
2022-10-01T08:09:40.870Z,96225.00
2022-10-01T08:14:41.638Z,96189.00
2022-10-01T08:19:42.374Z,96209.00
2022-10-01T08:24:43.726Z,96198.00
2022-10-01T08:29:44.506Z,96206.00
2022-10-01T08:34:46.253Z,96213.00
2022-10-01T08:39:46.984Z,96223.00
2022-10-01T08:44:50.234Z,96233.00
2022-10-01T08:49:55.795Z,96241.00
2022-10-01T08:55:10.464Z,96241.00
2022-10-01T09:00:14.500Z,96240.00
2022-10-01T09:06:48.745Z,96254.00
2022-10-01T09:12:14.070Z,96245.00
2022-10-01T09:17:50.203Z,96261.00
2022-10-01T09:23:19.461Z,96272.00
2022-10-01T09:28:32.801Z,96284.00
2022-10-01T09:33:40.824Z,96283.00
2022-10-01T09:38:46.449Z,96292.00
2022-10-01T09:43:47.339Z,96297.00
2022-10-01T09:49:13.687Z,96302.00
2022-10-01T09:54:35.338Z,96312.00
2022-10-01T09:59:48.669Z,96310.00
2022-10-01T10:05:50.495Z,96312.00
2022-10-01T10:10:57.642Z,96310.00
2022-10-01T10:15:59.666Z,96310.00
2022-10-01T10:21:08.139Z,96314.00
2022-10-01T10:26:18.650Z,96320.00
2022-10-01T10:31:23.571Z,96321.00
2022-10-01T10:36:29.043Z,96325.00
2022-10-01T10:41:29.971Z,96337.00
2022-10-01T10:46:34.453Z,96337.00
2022-10-01T10:51:50.474Z,96344.00
2022-10-01T10:57:01.503Z,96346.00
2022-10-01T11:02:05.478Z,96345.00
2022-10-01T11:07:08.005Z,96336.00
2022-10-01T11:12:22.308Z,96347.00
2022-10-01T11:19:02.068Z,96349.00
2022-10-01T11:24:32.730Z,96359.00
2022-10-01T11:31:31.308Z,96357.00
2022-10-01T11:37:05.147Z,96350.00
2022-10-01T11:42:21.475Z,96358.00
2022-10-01T11:47:31.310Z,96371.00
2022-10-01T11:52:38.773Z,96377.00
2022-10-01T11:59:01.780Z,96377.00
2022-10-01T12:04:45.173Z,96380.00
2022-10-01T12:11:16.955Z,96363.00
2022-10-01T12:17:45.653Z,96364.00
2022-10-01T12:22:47.778Z,96387.00
2022-10-01T12:28:11.786Z,96376.00
2022-10-01T12:33:41.950Z,96380.00
2022-10-01T12:39:19.792Z,96383.00
2022-10-01T12:48:52.292Z,96372.00
2022-10-01T12:57:10.379Z,96394.00
2022-10-01T13:04:03.368Z,96387.00
2022-10-01T13:09:15.721Z,96396.00
2022-10-01T13:14:18.295Z,96404.00
2022-10-01T13:19:27.404Z,96403.00
2022-10-01T13:26:18.356Z,96392.00
2022-10-01T13:31:19.548Z,96405.00
2022-10-01T13:36:33.112Z,96417.00
2022-10-01T13:41:35.343Z,96418.00
2022-10-01T13:46:51.759Z,96419.00
2022-10-01T13:51:53.625Z,96414.00
2022-10-01T13:56:54.662Z,96424.00
2022-10-01T14:01:55.516Z,96422.00
2022-10-01T14:07:01.517Z,96434.00
2022-10-01T14:13:08.501Z,96452.00
2022-10-01T14:18:15.690Z,96462.00
2022-10-01T14:23:23.742Z,96466.00
2022-10-01T14:31:17.158Z,96478.00
2022-10-01T14:36:31.768Z,96461.00
2022-10-01T14:41:34.350Z,96475.00
2022-10-01T14:46:35.399Z,96471.00
2022-10-01T14:51:53.107Z,96481.00
2022-10-01T14:56:54.942Z,96478.00
2022-10-01T15:01:59.281Z,96469.00
2022-10-01T15:07:11.842Z,96483.00
2022-10-01T15:12:16.798Z,96483.00
2022-10-01T15:17:22.801Z,96510.00
2022-10-01T15:22:28.895Z,96490.00
2022-10-01T15:27:30.401Z,96481.00
2022-10-01T15:32:31.234Z,96498.00
2022-10-01T15:37:36.605Z,96520.00
2022-10-01T15:42:37.352Z,96538.00
2022-10-01T15:47:51.063Z,96537.00
2022-10-01T15:53:02.844Z,96529.00
2022-10-01T15:58:54.472Z,96536.00
2022-10-01T16:04:05.941Z,96539.00
2022-10-01T16:09:22.895Z,96508.00
2022-10-01T16:14:41.594Z,96523.00
2022-10-01T16:19:56.007Z,96529.00
2022-10-01T16:25:06.714Z,96555.00
2022-10-01T16:30:22.719Z,96566.00
2022-10-01T16:35:26.317Z,96585.00
2022-10-01T16:40:32.308Z,96586.00
2022-10-01T16:45:38.089Z,96592.00
2022-10-01T16:50:41.039Z,96609.00
2022-10-01T16:55:42.697Z,96625.00
2022-10-01T17:00:43.641Z,96624.00
2022-10-01T17:05:45.539Z,96643.00
2022-10-01T17:10:56.135Z,96655.00
2022-10-01T17:15:57.024Z,96669.00
2022-10-01T17:20:58.786Z,96679.00
2022-10-01T17:25:59.512Z,96689.00
2022-10-01T17:31:05.802Z,96702.00
2022-10-01T17:36:08.437Z,96701.00
2022-10-01T17:41:09.222Z,96708.00
2022-10-01T17:46:10.076Z,96724.00
2022-10-01T17:51:13.789Z,96734.00
2022-10-01T17:56:17.387Z,96744.00
2022-10-01T18:01:21.319Z,96752.00
2022-10-01T18:06:23.982Z,96765.00
2022-10-01T18:11:27.242Z,96773.00
2022-10-01T18:16:28.002Z,96776.00
2022-10-01T18:21:28.844Z,96779.00
2022-10-01T18:26:29.594Z,96784.00
2022-10-01T18:31:36.811Z,96797.00
2022-10-01T18:36:54.199Z,96803.00
2022-10-01T18:41:56.169Z,96813.00
2022-10-01T18:47:27.070Z,96834.00
2022-10-01T18:56:09.837Z,96845.00
2022-10-01T19:01:36.434Z,96851.00
2022-10-01T19:06:55.152Z,96866.00
2022-10-01T19:12:13.618Z,96883.00
2022-10-01T19:18:11.718Z,96900.00
2022-10-01T19:30:21.728Z,96904.00
2022-10-01T19:35:31.720Z,96917.00
2022-10-01T19:40:39.873Z,96924.00
2022-10-01T19:45:57.865Z,96932.00
2022-10-01T19:51:07.119Z,96942.00
2022-10-01T19:56:14.848Z,96946.00
2022-10-01T20:01:20.434Z,96951.00
2022-10-01T20:06:38.550Z,96968.00
2022-10-01T20:12:39.015Z,96969.00
2022-10-01T20:19:26.446Z,96968.00
2022-10-01T20:25:49.936Z,96995.00
2022-10-01T20:31:17.887Z,97005.00
2022-10-01T20:36:34.984Z,97015.00
2022-10-01T20:41:48.618Z,97018.00
2022-10-01T20:47:05.932Z,97022.00
2022-10-01T20:53:19.403Z,97038.00
2022-10-01T20:58:27.121Z,97041.00
2022-10-01T21:03:40.906Z,97027.00
2022-10-01T21:08:56.999Z,97042.00
2022-10-01T21:14:18.397Z,97053.00
2022-10-01T21:21:22.550Z,97059.00
2022-10-01T21:28:55.681Z,97064.00
2022-10-01T21:36:04.603Z,97084.00
2022-10-01T21:41:39.259Z,97087.00
2022-10-01T21:46:54.596Z,97087.00
2022-10-01T21:55:05.456Z,97092.00
2022-10-01T22:00:22.268Z,97117.00
2022-10-01T22:05:56.120Z,97127.00
2022-10-01T22:11:03.269Z,97128.00
2022-10-01T22:16:09.522Z,97139.00
2022-10-01T22:21:13.636Z,97133.00
2022-10-01T22:26:20.504Z,97143.00
2022-10-01T22:31:26.622Z,97133.00
2022-10-01T22:36:41.555Z,97130.00
2022-10-01T22:41:55.516Z,97141.00
2022-10-01T22:48:08.650Z,97152.00
2022-10-01T22:55:06.713Z,97157.00
2022-10-01T23:00:12.236Z,97164.00
2022-10-01T23:06:43.418Z,97164.00
2022-10-01T23:13:41.695Z,97175.00
2022-10-01T23:20:32.696Z,97198.00
2022-10-01T23:29:29.814Z,97195.00
2022-10-01T23:35:20.736Z,97191.00
2022-10-01T23:40:27.026Z,97187.00
2022-10-01T23:45:40.921Z,97184.00
2022-10-01T23:50:53.698Z,97171.00
2022-10-01T23:56:49.304Z,97189.00
